createdAt,value
2019-06-20T00:00:48.256Z,99.90
2019-06-20T00:03:17.833Z,99.90
2019-06-20T00:05:54.660Z,99.90
2019-06-20T00:08:24.179Z,99.90
2019-06-20T00:11:00.840Z,99.90
2019-06-20T00:13:30.468Z,99.90
2019-06-20T00:16:06.997Z,99.90
2019-06-20T00:18:36.514Z,99.90
2019-06-20T00:21:12.342Z,99.90
2019-06-20T00:23:41.781Z,99.90
2019-06-20T00:26:11.254Z,99.90
2019-06-20T00:28:47.262Z,99.90
2019-06-20T00:31:22.889Z,99.90
2019-06-20T00:33:58.564Z,99.90
2019-06-20T00:36:35.109Z,99.90
2019-06-20T00:39:06.996Z,99.90
2019-06-20T00:41:44.009Z,99.90
2019-06-20T00:44:13.459Z,99.90
2019-06-20T00:46:49.504Z,99.90
2019-06-20T00:49:32.118Z,99.90
2019-06-20T00:52:07.758Z,99.90
2019-06-20T00:54:37.274Z,99.90
2019-06-20T00:57:13.259Z,99.90
2019-06-20T00:59:42.788Z,99.90
2019-06-20T01:02:24.965Z,99.90
2019-06-20T01:04:54.420Z,99.90
2019-06-20T01:07:30.297Z,99.90
2019-06-20T01:09:59.756Z,99.90
2019-06-20T01:12:35.886Z,99.90
2019-06-20T01:15:17.492Z,99.90
2019-06-20T01:17:47.044Z,99.90
2019-06-20T01:20:23.779Z,99.90
2019-06-20T01:22:53.214Z,99.90
2019-06-20T01:25:48.396Z,99.90
2019-06-20T01:28:24.526Z,99.90
2019-06-20T01:31:00.430Z,99.90
2019-06-20T01:33:30.077Z,99.90
2019-06-20T01:35:59.528Z,99.90
2019-06-20T01:38:35.822Z,99.90
2019-06-20T01:41:06.357Z,99.90
2019-06-20T01:43:50.607Z,99.90
2019-06-20T01:46:20.831Z,99.90
2019-06-20T01:48:57.279Z,99.90
2019-06-20T01:51:40.043Z,99.90
2019-06-20T01:54:09.565Z,99.90
2019-06-20T01:56:45.590Z,99.90
2019-06-20T01:59:15.035Z,99.90
2019-06-20T02:01:51.519Z,99.90
2019-06-20T02:04:21.023Z,99.90
2019-06-20T02:06:57.678Z,99.90
2019-06-20T02:09:27.193Z,99.90
2019-06-20T02:12:02.886Z,99.90
2019-06-20T02:14:39.236Z,99.90
2019-06-20T02:17:08.829Z,99.90
2019-06-20T02:19:44.493Z,99.90
2019-06-20T02:22:14.011Z,99.90
2019-06-20T02:24:50.262Z,99.90
2019-06-20T02:27:21.161Z,99.90
2019-06-20T02:29:57.148Z,99.90
2019-06-20T02:32:26.593Z,99.90
2019-06-20T02:35:02.202Z,99.90
2019-06-20T02:37:43.871Z,99.90
2019-06-20T02:40:13.720Z,99.90
2019-06-20T02:42:43.237Z,99.90
2019-06-20T02:45:19.647Z,99.90
2019-06-20T02:47:49.101Z,99.90
2019-06-20T02:50:31.676Z,99.90
2019-06-20T02:53:08.032Z,99.90
2019-06-20T02:55:37.682Z,99.90
2019-06-20T02:58:14.024Z,99.90
2019-06-20T03:01:02.314Z,99.90
2019-06-20T03:03:31.983Z,99.90
2019-06-20T03:06:01.497Z,99.90
2019-06-20T03:08:37.728Z,99.90
2019-06-20T03:11:07.175Z,99.90
2019-06-20T03:13:43.155Z,99.90
2019-06-20T03:16:19.023Z,99.90
2019-06-20T03:18:48.469Z,99.90
2019-06-20T03:21:18.066Z,99.90
2019-06-20T03:23:54.034Z,99.90
2019-06-20T03:26:23.495Z,99.90
2019-06-20T03:29:00.260Z,99.90
2019-06-20T03:31:36.630Z,99.90
2019-06-20T03:34:19.213Z,99.90
2019-06-20T03:36:55.724Z,99.90
2019-06-20T03:39:25.154Z,99.90
2019-06-20T03:42:01.689Z,99.90
2019-06-20T03:44:31.203Z,99.90
2019-06-20T03:47:07.255Z,99.90
2019-06-20T03:49:50.027Z,99.90
2019-06-20T03:52:33.434Z,99.90
2019-06-20T03:55:03.142Z,99.90
2019-06-20T03:57:39.685Z,99.90
2019-06-20T04:00:10.145Z,99.90
2019-06-20T04:02:39.608Z,99.90
2019-06-20T04:05:16.745Z,99.90
2019-06-20T04:07:52.401Z,99.90
2019-06-20T04:10:28.618Z,99.90
2019-06-20T04:12:58.137Z,99.90
2019-06-20T04:15:33.840Z,99.90
2019-06-20T04:18:03.293Z,99.90
2019-06-20T04:20:39.100Z,99.90
2019-06-20T04:23:08.547Z,99.90
2019-06-20T04:25:44.599Z,99.90
2019-06-20T04:28:14.128Z,99.90
2019-06-20T04:30:49.752Z,99.90
2019-06-20T04:33:19.217Z,99.90
2019-06-20T04:36:01.506Z,99.90
2019-06-20T04:38:31.056Z,99.90
2019-06-20T04:41:07.045Z,99.90
2019-06-20T04:43:36.869Z,99.90
2019-06-20T04:46:14.103Z,99.90
2019-06-20T04:48:43.559Z,99.90
2019-06-20T04:51:19.764Z,99.90
2019-06-20T04:53:55.671Z,99.90
2019-06-20T04:56:38.146Z,99.90
2019-06-20T04:59:07.628Z,99.90
2019-06-20T05:01:44.135Z,99.90
2019-06-20T05:04:13.671Z,99.90
2019-06-20T05:06:53.595Z,99.90
2019-06-20T05:09:23.065Z,99.90
2019-06-20T05:11:58.714Z,99.90
2019-06-20T05:14:35.224Z,99.90
2019-06-20T05:17:10.873Z,99.90
2019-06-20T05:19:41.804Z,99.90
2019-06-20T05:22:17.631Z,99.90
2019-06-20T05:24:47.095Z,99.90
2019-06-20T05:27:23.161Z,99.90
2019-06-20T05:29:59.218Z,99.90
2019-06-20T05:32:28.690Z,99.90
2019-06-20T05:35:04.954Z,99.90
2019-06-20T05:37:34.380Z,99.90
2019-06-20T05:40:11.417Z,99.90
2019-06-20T05:42:40.955Z,99.90
2019-06-20T05:45:18.522Z,99.90
2019-06-20T05:47:48.051Z,99.90
2019-06-20T05:50:24.833Z,99.90
2019-06-20T05:53:07.619Z,99.90
2019-06-20T05:55:44.414Z,99.90
2019-06-20T05:58:13.967Z,99.90
2019-06-20T06:00:50.633Z,99.90
2019-06-20T06:03:26.889Z,99.90
2019-06-20T06:05:56.435Z,99.90
2019-06-20T06:08:32.705Z,99.90
2019-06-20T06:11:02.277Z,99.90
2019-06-20T06:13:38.289Z,99.90
2019-06-20T06:16:07.881Z,99.90
2019-06-20T06:18:44.025Z,99.90
2019-06-20T06:21:13.656Z,99.90
2019-06-20T06:23:43.172Z,99.90
2019-06-20T06:26:18.994Z,99.90
2019-06-20T06:28:55.022Z,99.90
2019-06-20T06:31:24.575Z,99.90
2019-06-20T06:33:54.019Z,99.90
2019-06-20T06:36:30.292Z,99.90
2019-06-20T06:39:09.485Z,99.90
2019-06-20T06:41:46.192Z,99.90
2019-06-20T06:44:22.220Z,99.90
2019-06-20T06:46:57.523Z,99.90
2019-06-20T06:49:30.016Z,99.90
2019-06-20T06:51:59.672Z,99.90
2019-06-20T06:54:41.999Z,99.90
2019-06-20T06:57:17.494Z,99.90
2019-06-20T06:59:53.318Z,99.90
2019-06-20T07:02:22.980Z,99.90
2019-06-20T07:04:59.374Z,99.90
2019-06-20T07:07:35.271Z,99.90
2019-06-20T07:10:07.352Z,99.90
2019-06-20T07:12:43.051Z,99.90
2019-06-20T07:15:14.398Z,99.90
2019-06-20T07:17:50.877Z,99.90
2019-06-20T07:20:27.014Z,99.90
2019-06-20T07:22:56.554Z,99.90
2019-06-20T07:25:32.184Z,99.90
2019-06-20T07:28:01.669Z,99.90
2019-06-20T07:30:38.095Z,99.90
2019-06-20T07:33:14.578Z,99.90
2019-06-20T07:35:45.377Z,99.90
2019-06-20T07:38:21.296Z,99.90
2019-06-20T07:40:56.971Z,99.90
2019-06-20T07:43:26.490Z,99.90
2019-06-20T07:46:03.377Z,99.90
2019-06-20T07:48:39.024Z,99.90
2019-06-20T07:51:08.549Z,99.90
2019-06-20T07:53:44.434Z,99.90
2019-06-20T07:56:27.601Z,99.90
2019-06-20T07:59:03.316Z,99.90
2019-06-20T08:01:32.932Z,99.90
2019-06-20T08:04:09.413Z,99.90
2019-06-20T08:06:38.949Z,99.90
2019-06-20T08:09:16.394Z,99.90
2019-06-20T08:11:46.053Z,99.90
2019-06-20T08:14:22.042Z,99.90
2019-06-20T08:16:51.558Z,99.90
2019-06-20T08:19:28.096Z,99.90
2019-06-20T08:21:57.545Z,99.90
2019-06-20T08:24:34.256Z,99.90
2019-06-20T08:27:04.914Z,99.90
2019-06-20T08:29:41.027Z,99.90
2019-06-20T08:32:10.626Z,99.90
2019-06-20T08:34:46.754Z,99.90
2019-06-20T08:37:16.358Z,99.90
2019-06-20T08:39:52.435Z,99.90
2019-06-20T08:42:21.988Z,99.90
2019-06-20T08:45:03.973Z,99.90
2019-06-20T08:47:33.753Z,99.90
2019-06-20T08:50:10.880Z,99.90
2019-06-20T08:52:46.818Z,99.90
2019-06-20T08:55:25.208Z,99.80
2019-06-20T08:58:07.690Z,99.70
2019-06-20T09:00:38.358Z,99.80
2019-06-20T09:03:16.936Z,99.30
2019-06-20T09:05:46.617Z,99.10
2019-06-20T09:08:22.711Z,99.90
2019-06-20T09:10:54.123Z,99.30
2019-06-20T09:13:30.572Z,99.70
2019-06-20T09:16:00.915Z,99.20
2019-06-20T09:18:37.324Z,99.40
2019-06-20T09:21:07.395Z,99.30
2019-06-20T09:23:43.193Z,98.40
2019-06-20T09:26:19.186Z,98.20
2019-06-20T09:28:55.696Z,97.40
2019-06-20T09:31:25.225Z,97.70
2019-06-20T09:34:04.903Z,97.60
2019-06-20T09:36:32.290Z,96.50
2019-06-20T09:39:08.972Z,96.70
2019-06-20T09:41:45.471Z,96.90
2019-06-20T09:44:14.949Z,97.10
2019-06-20T09:46:52.333Z,96.20
2019-06-20T09:49:29.281Z,96.50
2019-06-20T09:52:12.641Z,97.20
2019-06-20T09:54:44.819Z,97.00
2019-06-20T09:57:27.377Z,95.70
2019-06-20T10:00:09.948Z,96.70
2019-06-20T10:03:01.514Z,97.00
2019-06-20T10:05:38.167Z,95.90
2019-06-20T10:08:14.063Z,95.90
2019-06-20T10:10:43.677Z,96.70
2019-06-20T10:13:13.133Z,96.40
2019-06-20T10:15:49.460Z,96.20
2019-06-20T10:18:19.107Z,96.20
2019-06-20T10:20:48.890Z,95.70
2019-06-20T10:23:24.656Z,96.10
2019-06-20T10:26:00.445Z,96.10
2019-06-20T10:28:29.974Z,96.40
2019-06-20T10:30:59.569Z,96.00
2019-06-20T10:33:35.948Z,96.80
2019-06-20T10:36:06.016Z,95.90
2019-06-20T10:38:42.212Z,97.10
2019-06-20T10:41:11.862Z,96.40
2019-06-20T10:43:47.614Z,96.20
2019-06-20T10:46:24.347Z,96.30
2019-06-20T10:48:54.793Z,95.30
2019-06-20T10:51:45.966Z,95.90
2019-06-20T10:54:22.618Z,96.70
2019-06-20T10:56:58.456Z,95.60
2019-06-20T10:59:42.670Z,96.70
2019-06-20T11:02:12.274Z,94.90
2019-06-20T11:04:49.801Z,94.70
2019-06-20T11:07:19.514Z,95.50
2019-06-20T11:09:56.321Z,95.60
2019-06-20T11:12:42.850Z,94.90
2019-06-20T11:15:05.355Z,95.30
2019-06-20T11:17:41.957Z,94.60
2019-06-20T11:20:12.681Z,94.30
2019-06-20T11:22:48.741Z,94.20
2019-06-20T11:25:25.194Z,94.20
2019-06-20T11:27:54.796Z,94.60
2019-06-20T11:30:53.307Z,95.50
2019-06-20T11:33:23.137Z,96.60
2019-06-20T11:35:52.854Z,99.20
2019-06-20T11:38:33.337Z,99.90
2019-06-20T11:41:03.984Z,99.90
2019-06-20T11:43:40.129Z,99.90
2019-06-20T11:46:28.159Z,99.90
2019-06-20T11:49:10.301Z,99.90
2019-06-20T11:51:46.149Z,99.90
2019-06-20T11:54:21.996Z,99.90
2019-06-20T11:56:58.118Z,99.90
2019-06-20T11:59:40.545Z,99.90
2019-06-20T12:02:23.890Z,99.90
2019-06-20T12:04:53.476Z,99.90
2019-06-20T12:07:29.645Z,99.90
2019-06-20T12:09:59.667Z,99.90
2019-06-20T12:12:29.187Z,99.90
2019-06-20T12:15:07.121Z,99.90
2019-06-20T12:17:39.338Z,99.90
2019-06-20T12:20:16.714Z,99.90
2019-06-20T12:22:52.550Z,99.90
2019-06-20T12:25:30.048Z,99.90
2019-06-20T12:28:06.562Z,99.90
2019-06-20T12:30:36.101Z,99.90
2019-06-20T12:33:12.571Z,99.90
2019-06-20T12:35:49.108Z,99.90
2019-06-20T12:38:18.640Z,99.90
2019-06-20T12:40:54.967Z,99.90
2019-06-20T12:43:24.576Z,99.90
2019-06-20T12:46:00.687Z,99.90
2019-06-20T12:48:30.347Z,99.90
2019-06-20T12:51:00.059Z,99.90
2019-06-20T12:53:37.780Z,99.90
2019-06-20T12:56:14.678Z,99.90
2019-06-20T12:58:50.997Z,99.90
2019-06-20T13:01:36.890Z,99.90
2019-06-20T13:04:04.030Z,99.90
2019-06-20T13:06:33.617Z,99.90
2019-06-20T13:09:10.618Z,99.90
2019-06-20T13:11:47.398Z,99.90
2019-06-20T13:14:16.920Z,99.90
2019-06-20T13:16:52.571Z,99.90
2019-06-20T13:19:22.036Z,99.90
2019-06-20T13:21:58.225Z,99.90
2019-06-20T13:24:27.758Z,99.90
2019-06-20T13:27:03.507Z,99.90
2019-06-20T13:29:41.078Z,99.90
2019-06-20T16:15:52.432Z,99.90
2019-06-20T16:18:38.023Z,99.90
2019-06-20T16:21:12.154Z,99.90
2019-06-20T16:24:01.360Z,99.90
2019-06-20T16:26:43.765Z,99.90
2019-06-20T16:29:16.331Z,99.90
2019-06-20T16:31:55.689Z,99.90
2019-06-20T16:34:25.181Z,99.90
2019-06-20T16:37:09.988Z,99.90
2019-06-20T16:39:39.334Z,99.90
2019-06-20T16:42:16.225Z,99.90
2019-06-20T16:44:45.834Z,99.90
2019-06-20T16:47:21.522Z,99.90
2019-06-20T16:49:51.143Z,99.90
2019-06-20T16:52:26.900Z,99.90
2019-06-20T16:55:02.954Z,99.90
2019-06-20T16:57:39.039Z,99.90
2019-06-20T17:00:16.823Z,99.90
2019-06-20T17:03:06.963Z,99.90
2019-06-20T17:05:43.096Z,99.90
2019-06-20T17:08:12.707Z,99.90
2019-06-20T17:10:48.565Z,99.90
2019-06-20T17:13:18.165Z,99.90
2019-06-20T17:15:47.833Z,99.90
2019-06-20T17:18:26.043Z,99.90
2019-06-20T17:20:55.663Z,99.90
2019-06-20T17:23:25.333Z,99.90
2019-06-20T17:26:01.833Z,99.90
2019-06-20T17:28:31.439Z,99.90
2019-06-20T17:31:07.344Z,99.90
2019-06-20T17:33:36.823Z,99.90
2019-06-20T17:36:18.239Z,99.90
2019-06-20T17:38:43.970Z,99.90
2019-06-20T17:41:15.988Z,99.90
2019-06-20T17:43:51.827Z,99.90
2019-06-20T17:46:21.446Z,99.90
2019-06-20T17:48:58.193Z,99.90
2019-06-20T17:51:34.448Z,99.90
2019-06-20T17:54:07.311Z,99.90
2019-06-20T17:56:50.108Z,99.90
2019-06-20T17:59:22.669Z,99.90
2019-06-20T18:01:57.691Z,99.90
2019-06-20T18:04:27.142Z,99.90
2019-06-20T18:07:04.038Z,99.90
2019-06-20T18:09:41.850Z,99.90
2019-06-20T18:12:17.860Z,99.90
2019-06-20T18:14:47.400Z,99.90
2019-06-20T18:17:23.815Z,99.90
2019-06-20T18:19:59.681Z,99.90
2019-06-20T18:22:36.066Z,99.90
2019-06-20T18:25:08.470Z,99.90
2019-06-20T18:27:38.156Z,99.90
2019-06-20T18:30:16.295Z,99.90
2019-06-20T18:32:45.834Z,99.90
2019-06-20T18:35:22.379Z,99.90
2019-06-20T18:37:51.984Z,99.90
2019-06-20T18:40:28.032Z,99.90
2019-06-20T18:42:57.643Z,99.90
2019-06-20T18:45:33.679Z,99.90
2019-06-20T18:48:09.687Z,99.90
2019-06-20T18:50:39.364Z,99.90
2019-06-20T18:53:15.110Z,99.90
2019-06-20T18:55:44.779Z,99.90
2019-06-20T18:58:27.742Z,99.90
2019-06-20T19:00:57.346Z,99.90
2019-06-20T19:03:33.583Z,99.90
2019-06-20T19:06:09.452Z,99.90
2019-06-20T19:08:39.073Z,99.90
2019-06-20T19:11:15.917Z,99.90
2019-06-20T19:13:45.477Z,99.90
2019-06-20T19:16:17.268Z,99.90
2019-06-20T19:18:53.886Z,99.90
2019-06-20T19:21:36.737Z,99.90
2019-06-20T19:24:06.582Z,99.90
2019-06-20T19:26:43.201Z,99.90
2019-06-20T19:29:12.734Z,99.90
2019-06-20T19:31:48.890Z,99.90
2019-06-20T19:34:25.281Z,99.90
2019-06-20T19:36:54.972Z,99.90
2019-06-20T19:39:31.087Z,99.90
2019-06-20T19:42:07.689Z,99.90
2019-06-20T19:44:37.236Z,99.90
2019-06-20T19:47:13.789Z,99.90
2019-06-20T19:49:50.278Z,99.90
2019-06-20T19:52:26.977Z,99.90
2019-06-20T19:54:59.111Z,99.90
2019-06-20T19:57:35.174Z,99.90
2019-06-20T20:00:19.899Z,99.90
2019-06-20T20:02:49.606Z,99.90
2019-06-20T20:05:20.090Z,99.90
2019-06-20T20:08:03.428Z,99.90
2019-06-20T20:10:46.446Z,99.90
2019-06-20T20:13:23.437Z,99.90
2019-06-20T20:16:00.103Z,99.90
2019-06-20T20:18:29.724Z,99.90
2019-06-20T20:21:12.374Z,99.90
2019-06-20T20:23:54.670Z,99.90
2019-06-20T20:26:24.201Z,99.90
2019-06-20T20:29:00.182Z,99.90
2019-06-20T20:31:30.121Z,99.90
2019-06-20T20:34:06.621Z,99.90
2019-06-20T20:36:36.314Z,99.90
2019-06-20T20:39:16.947Z,99.90
2019-06-20T20:41:45.652Z,99.90
2019-06-20T20:44:28.715Z,99.90
2019-06-20T20:46:58.258Z,99.90
2019-06-20T20:49:35.647Z,99.90
2019-06-20T20:52:05.330Z,99.90
2019-06-20T20:54:35.199Z,99.90
2019-06-20T20:57:11.577Z,99.90
2019-06-20T20:59:47.604Z,99.90
2019-06-20T21:02:24.043Z,99.90
2019-06-20T21:04:53.521Z,99.90
2019-06-20T21:07:29.637Z,99.90
2019-06-20T21:09:59.253Z,99.90
2019-06-20T21:12:35.749Z,99.90
2019-06-20T21:15:08.046Z,99.90
2019-06-20T21:17:43.740Z,99.90
2019-06-20T21:20:20.843Z,99.90
2019-06-20T21:23:03.493Z,99.90
2019-06-20T21:25:33.027Z,99.90
2019-06-20T21:28:09.147Z,99.90
2019-06-20T21:30:38.765Z,99.90
2019-06-20T21:33:08.238Z,99.90
2019-06-20T21:35:46.848Z,99.90
2019-06-20T21:38:16.574Z,99.90
2019-06-20T21:40:52.420Z,99.90
2019-06-20T21:43:21.879Z,99.90
2019-06-20T21:45:57.451Z,99.90
2019-06-20T21:48:33.765Z,99.90
2019-06-20T21:51:10.141Z,99.90
2019-06-20T21:53:46.621Z,99.90
2019-06-20T21:56:16.151Z,99.90
2019-06-20T21:58:52.760Z,99.90
2019-06-20T22:01:22.770Z,99.90
2019-06-20T22:03:58.935Z,99.90
2019-06-20T22:06:28.556Z,99.90
2019-06-20T22:09:13.336Z,99.90
2019-06-20T22:11:49.675Z,99.90
2019-06-20T22:14:25.761Z,99.90
2019-06-20T22:16:55.371Z,99.90
2019-06-20T22:19:31.342Z,99.90
2019-06-20T22:22:14.017Z,99.90
2019-06-20T22:24:57.226Z,99.90
2019-06-20T22:27:33.768Z,99.90
2019-06-20T22:30:04.854Z,99.90
2019-06-20T22:32:40.644Z,99.90
2019-06-20T22:35:10.909Z,99.90
2019-06-20T22:37:47.693Z,99.90
2019-06-20T22:40:17.479Z,99.90
2019-06-20T22:42:53.572Z,99.90
2019-06-20T22:45:23.551Z,99.90
2019-06-20T22:47:53.093Z,99.90
2019-06-20T22:50:31.193Z,99.90
2019-06-20T22:53:00.727Z,99.90
2019-06-20T22:55:36.842Z,99.90
2019-06-20T22:58:07.122Z,99.90
2019-06-20T23:00:43.156Z,99.90
2019-06-20T23:03:12.712Z,99.90
2019-06-20T23:05:49.374Z,99.90
2019-06-20T23:08:19.016Z,99.90
2019-06-20T23:11:01.321Z,99.90
2019-06-20T23:13:30.853Z,99.90
2019-06-20T23:16:07.473Z,99.90
2019-06-20T23:18:36.957Z,99.90
2019-06-20T23:21:13.368Z,99.90
2019-06-20T23:23:49.627Z,99.90
2019-06-20T23:26:26.208Z,99.90
2019-06-20T23:29:13.318Z,99.90
2019-06-20T23:31:49.147Z,99.90
2019-06-20T23:34:18.678Z,99.90
2019-06-20T23:36:54.471Z,99.90
2019-06-20T23:39:24.008Z,99.90
2019-06-20T23:41:59.657Z,99.90
2019-06-20T23:44:29.118Z,99.90
2019-06-20T23:47:04.826Z,99.90
2019-06-20T23:49:34.353Z,99.90
2019-06-20T23:52:17.520Z,99.90
2019-06-20T23:54:47.068Z,99.90
2019-06-20T23:57:30.103Z,99.90
2019-06-20T23:59:59.631Z,99.90
